Aérodrome :
LOGIN :

S'inscrire | Disclaimer

   EN    FR    IT 

 










Légende :    VFR   VFR Marginal   IFR   IFR Intensif   IFR Très Intensif
Visi : 
Plafond : 
>= 8 km
>= 3000ft
5 à 8 km
1000 à 3000 ft
1500m à 5 km
500 à 1000 ft
800 à 1500m
200 à 500 ft
< 800m
< 200 ft
Symboles :   Orages  Brouillard  Fortes neiges  Fortes précipitations  Vent > 20 kt
SIGMETs :   Divers  Orages  Givrage  Turbulence  Onde Orograph.  Cendres Volcan.






- Altitude de l'aérodrome : 788 ft
- Code IATA : DCM


LFCK - Castres-Mazamet

DERNIER METAR :
  • 142100Z AUTO 07003KT 6000 BKN049 BKN056 OVC072 03/03 Q0999 NOSIG

METARs EXPIRÉS :
  • 142030Z AUTO 04002KT 9000 2100 FEW005 SCT034 BKN041 03/03 Q0999 NOSIG
  • 142000Z AUTO 17003KT 9999 BKN037 BKN062 BKN190 04/04 Q0999 NOSIG
  • 141930Z AUTO 15003KT 9999 SCT031 BKN200 OVC220 04/03 Q0999 NOSIG
  • 141900Z AUTO 18002KT 9999 BKN026 OVC190 04/04 Q0999 NOSIG
  • 141830Z AUTO 09003KT 9999 OVC025 05/04 Q0999 NOSIG
  • 141800Z AUTO 11003KT 9999 OVC023 05/04 Q0999 TEMPO SCT050TCU

TAF TAF LFCK
Valide du 14 à 18h jusqu'au 15 à 03h UTC


141700Z 1418/1503 VRB02KT 9999 BKN017 BKN030
PROB40
TEMPO 1423/1503 3000 BR



MET'MAP, la Météo Aéronautique d'un coup d'oeil ! - Copyright ORBIFLY Décembre 2007 - Disclaimer

ORBIFLY MET'MAP TEAM :

Programmation & Développement : Alexandra Zaïnal
Conception & Développement : Baudouin d'Aumeries
Co-Programmation & Développement : Marc-Olivier Méhu
Soutien technique & logistique : Manuel Goepfert

Contact : metmap@orbifly.com




SOURCES & CREDITS :

   NOAA